createdAt,value
2023-04-18T00:01:08.112Z,101923.66
2023-04-18T00:03:36.539Z,101923.66
2023-04-18T00:06:03.605Z,101923.22
2023-04-18T00:08:30.073Z,101922.19
2023-04-18T00:10:57.396Z,101920.13
2023-04-18T00:13:23.743Z,101923.06
2023-04-18T00:15:50.269Z,101918.47
2023-04-18T00:18:17.232Z,101921.19
2023-04-18T00:20:43.815Z,101915.38
2023-04-18T00:23:13.927Z,101914.50
2023-04-18T00:25:40.776Z,101921.41
2023-04-18T00:28:07.088Z,101919.75
2023-04-18T00:30:33.722Z,101914.34
2023-04-18T00:33:00.283Z,101902.84
2023-04-18T00:35:26.760Z,101912.00
2023-04-18T00:37:53.369Z,101911.41
2023-04-18T00:40:19.818Z,101907.28
2023-04-18T00:42:46.158Z,101913.16
2023-04-18T00:45:12.583Z,101915.03
2023-04-18T00:47:39.058Z,101911.31
2023-04-18T00:50:06.034Z,101911.88
2023-04-18T00:52:35.822Z,101905.22
2023-04-18T00:55:06.554Z,101906.69
2023-04-18T00:57:33.566Z,101909.41
2023-04-18T01:00:01.193Z,101903.81
2023-04-18T01:02:30.569Z,101908.22
2023-04-18T01:04:58.645Z,101901.13
2023-04-18T01:07:26.531Z,101910.28
2023-04-18T01:09:53.874Z,101902.38
2023-04-18T01:12:20.293Z,101901.13
2023-04-18T01:14:46.659Z,101899.06
2023-04-18T01:17:13.344Z,101904.66
2023-04-18T01:19:40.434Z,101903.63
2023-04-18T01:22:07.044Z,101894.50
2023-04-18T01:24:34.009Z,101891.38
2023-04-18T01:27:02.869Z,101887.19
2023-04-18T01:29:29.250Z,101888.88
2023-04-18T01:31:55.901Z,101886.16
2023-04-18T01:34:22.324Z,101883.66
2023-04-18T01:36:49.006Z,101874.50
2023-04-18T01:39:15.532Z,101880.31
2023-04-18T01:41:42.087Z,101886.38
2023-04-18T01:44:08.550Z,101880.53
2023-04-18T01:46:36.137Z,101881.34
2023-04-18T01:49:03.717Z,101877.00
2023-04-18T01:51:31.231Z,101880.78
2023-04-18T01:53:57.700Z,101875.75
2023-04-18T01:56:24.040Z,101879.50
2023-04-18T01:58:50.452Z,101871.41
2023-04-18T02:01:16.982Z,101876.81
2023-04-18T02:03:43.580Z,101874.53
2023-04-18T02:06:10.259Z,101876.81
2023-04-18T02:08:36.771Z,101881.81
2023-04-18T02:11:03.515Z,101879.31
2023-04-18T02:13:29.861Z,101874.09
2023-04-18T02:15:56.349Z,101878.69
2023-04-18T02:18:24.709Z,101887.41
2023-04-18T02:20:51.958Z,101886.16
2023-04-18T02:23:18.911Z,101877.84
2023-04-18T02:25:45.302Z,101878.88
2023-04-18T02:28:11.682Z,101877.81
2023-04-18T02:30:38.105Z,101882.41
2023-04-18T02:33:04.526Z,101871.16
2023-04-18T02:35:31.676Z,101867.63
2023-04-18T02:37:58.300Z,101871.56
2023-04-18T02:40:24.725Z,101868.22
2023-04-18T02:42:51.167Z,101870.31
2023-04-18T02:45:17.832Z,101869.25
2023-04-18T02:47:54.720Z,101869.47
2023-04-18T02:50:22.963Z,101877.38
2023-04-18T02:52:49.329Z,101869.91
2023-04-18T02:55:16.131Z,101874.88
2023-04-18T02:57:42.635Z,101871.13
2023-04-18T03:00:09.456Z,101865.91
2023-04-18T03:02:35.993Z,101875.31
2023-04-18T03:05:02.802Z,101871.97
2023-04-18T03:07:30.694Z,101869.94
2023-04-18T03:09:57.116Z,101866.78
2023-04-18T03:12:23.496Z,101880.75
2023-04-18T03:14:49.929Z,101879.72
2023-04-18T03:17:16.382Z,101881.19
2023-04-18T03:19:42.795Z,101887.44
2023-04-18T03:22:09.900Z,101884.50
2023-04-18T03:24:36.213Z,101883.00
2023-04-18T03:27:02.619Z,101884.91
2023-04-18T03:29:29.057Z,101882.00
2023-04-18T03:31:55.356Z,101889.47
2023-04-18T03:34:21.862Z,101884.06
2023-04-18T03:36:48.382Z,101890.50
2023-04-18T03:39:14.987Z,101883.22
2023-04-18T03:41:41.565Z,101886.16
2023-04-18T03:44:08.849Z,101883.44
2023-04-18T03:46:35.573Z,101887.78
2023-04-18T03:49:02.244Z,101892.25
2023-04-18T03:51:33.799Z,101886.22
2023-04-18T03:54:00.248Z,101894.53
2023-04-18T03:56:26.954Z,101885.53
2023-04-18T03:58:53.355Z,101893.25
2023-04-18T04:01:19.723Z,101887.47
2023-04-18T04:03:46.483Z,101882.63
2023-04-18T04:06:13.091Z,101888.47
2023-04-18T04:08:39.445Z,101893.25
2023-04-18T04:11:05.909Z,101892.63
2023-04-18T04:13:32.248Z,101896.78
2023-04-18T04:15:58.646Z,101897.59
2023-04-18T04:18:31.022Z,101903.69
2023-04-18T04:20:59.123Z,101903.88
2023-04-18T04:23:26.772Z,101909.47
2023-04-18T04:25:54.313Z,101908.41
2023-04-18T04:28:23.720Z,101904.66
2023-04-18T04:30:50.827Z,101914.28
2023-04-18T04:33:19.465Z,101913.69
2023-04-18T04:35:49.714Z,101919.50
2023-04-18T04:38:16.913Z,101926.53
2023-04-18T04:40:43.418Z,101922.22
2023-04-18T04:43:16.420Z,101929.31
2023-04-18T04:45:51.485Z,101927.88
2023-04-18T04:48:19.806Z,101930.16
2023-04-18T04:50:57.947Z,101939.31
2023-04-18T04:53:26.216Z,101935.53
2023-04-18T04:55:52.612Z,101944.19
2023-04-18T04:58:19.930Z,101948.38
2023-04-18T05:00:46.482Z,101950.06
2023-04-18T05:03:13.043Z,101949.69
2023-04-18T05:05:39.689Z,101950.72
2023-04-18T05:08:06.238Z,101954.22
2023-04-18T05:10:33.095Z,101956.22
2023-04-18T05:12:59.514Z,101966.66
2023-04-18T05:15:25.895Z,101965.84
2023-04-18T05:17:52.248Z,101959.97
2023-04-18T05:20:18.698Z,101960.81
2023-04-18T05:22:45.083Z,101959.59
2023-04-18T05:25:12.474Z,101969.19
2023-04-18T05:27:39.390Z,101972.88
2023-04-18T05:30:06.488Z,101969.97
2023-04-18T05:32:32.886Z,101974.19
2023-04-18T05:35:00.452Z,101976.75
2023-04-18T05:37:26.806Z,101979.00
2023-04-18T05:39:53.186Z,101979.28
2023-04-18T05:42:19.686Z,101978.41
2023-04-18T05:44:46.038Z,101985.50
2023-04-18T05:47:12.428Z,101984.59
2023-04-18T05:49:38.852Z,101980.22
2023-04-18T05:52:05.448Z,101982.66
2023-04-18T05:54:31.771Z,101980.84
2023-04-18T05:56:58.416Z,101988.59
2023-04-18T05:59:26.749Z,101977.38
2023-04-18T06:01:53.425Z,101989.47
2023-04-18T06:04:21.145Z,101985.72
2023-04-18T06:06:47.863Z,101987.72
2023-04-18T06:09:14.280Z,101990.25
2023-04-18T06:11:40.736Z,101982.09
2023-04-18T06:14:07.714Z,101988.34
2023-04-18T06:16:35.903Z,101986.91
2023-04-18T06:19:03.120Z,101991.28
2023-04-18T06:21:29.637Z,101994.84
2023-04-18T06:23:55.989Z,101993.69
2023-04-18T06:26:22.449Z,101990.78
2023-04-18T06:28:48.834Z,102003.91
2023-04-18T06:31:15.206Z,102002.66
2023-04-18T06:33:41.857Z,102003.25
2023-04-18T06:36:08.850Z,101993.72
2023-04-18T06:38:35.328Z,101996.19
2023-04-18T06:41:01.812Z,101998.94
2023-04-18T06:43:28.214Z,101992.50
2023-04-18T06:45:55.694Z,101994.19
2023-04-18T06:48:22.644Z,101992.53
2023-04-18T06:50:48.979Z,102001.28
2023-04-18T06:53:15.389Z,102003.78
2023-04-18T06:55:41.922Z,101998.75
2023-04-18T06:58:09.936Z,102010.44
2023-04-18T07:00:36.404Z,102008.34
2023-04-18T07:03:11.473Z,102014.59
2023-04-18T07:05:38.888Z,102011.66
2023-04-18T07:08:05.374Z,102012.03
2023-04-18T07:10:32.171Z,102017.03
2023-04-18T07:12:58.569Z,102018.66
2023-04-18T07:15:24.975Z,102031.84
2023-04-18T07:17:51.542Z,102040.44
2023-04-18T07:20:17.938Z,102032.56
2023-04-18T07:22:44.376Z,102033.00
2023-04-18T07:25:10.870Z,102034.03
2023-04-18T07:27:37.537Z,102033.81
2023-04-18T07:30:04.842Z,102045.88
2023-04-18T07:32:31.443Z,102037.56
2023-04-18T07:34:57.843Z,102032.53
2023-04-18T07:37:24.629Z,102035.84
2023-04-18T07:39:51.436Z,102039.22
2023-04-18T07:42:17.953Z,102034.00
2023-04-18T07:44:44.639Z,102036.66
2023-04-18T07:47:11.085Z,102045.03
2023-04-18T07:49:38.208Z,102040.03
2023-04-18T07:52:04.914Z,102047.56
2023-04-18T07:54:31.323Z,102047.53
2023-04-18T07:56:59.757Z,102050.59
2023-04-18T07:59:26.292Z,102044.59
2023-04-18T08:01:52.886Z,102046.72
2023-04-18T08:04:19.381Z,102050.47
2023-04-18T08:06:45.960Z,102043.78
2023-04-18T08:09:12.496Z,102048.38
2023-04-18T08:11:39.223Z,102043.72
2023-04-18T08:14:05.760Z,102041.59
2023-04-18T08:16:32.253Z,102040.31
2023-04-18T08:18:58.620Z,102043.19
2023-04-18T08:21:26.687Z,102050.88
2023-04-18T08:23:53.275Z,102044.16
2023-04-18T08:26:19.789Z,102047.19
2023-04-18T08:28:46.650Z,102046.19
2023-04-18T08:31:14.573Z,102049.72
2023-04-18T08:33:41.628Z,102052.06
2023-04-18T08:36:08.217Z,102050.41
2023-04-18T08:38:34.751Z,102058.78
2023-04-18T08:41:01.282Z,102054.50
2023-04-18T08:43:30.048Z,102046.94
2023-04-18T08:45:59.514Z,102051.56
2023-04-18T08:48:28.246Z,102052.13
2023-04-18T08:50:58.694Z,102046.16
2023-04-18T08:53:26.746Z,102052.94
2023-04-18T08:55:57.053Z,102059.38
2023-04-18T08:58:24.392Z,102052.94
2023-04-18T09:00:52.309Z,102056.97
2023-04-18T09:03:39.619Z,102046.88
2023-04-18T09:06:19.448Z,102054.44
2023-04-18T09:08:59.032Z,102056.16
2023-04-18T09:11:28.798Z,102050.19
2023-04-18T09:13:58.843Z,102045.06
2023-04-18T09:16:27.472Z,102046.66
2023-04-18T09:19:11.074Z,102043.38
2023-04-18T09:21:46.200Z,102046.56
2023-04-18T09:24:21.136Z,102053.84
2023-04-18T09:26:49.715Z,102044.53
2023-04-18T09:29:18.423Z,102044.97
2023-04-18T09:31:56.055Z,102047.47
2023-04-18T09:34:26.264Z,102038.94
2023-04-18T09:37:07.776Z,102043.91
2023-04-18T09:39:34.446Z,102043.28
2023-04-18T09:42:01.312Z,102039.25
2023-04-18T09:44:27.953Z,102036.84
2023-04-18T09:46:54.380Z,102024.84
2023-04-18T09:49:20.856Z,102026.16
2023-04-18T09:51:50.402Z,102027.41
2023-04-18T09:54:18.296Z,102026.00
2023-04-18T09:56:45.797Z,102032.97
2023-04-18T09:59:14.923Z,102025.50
2023-04-18T10:01:41.701Z,102030.72
2023-04-18T10:04:10.022Z,102024.66
2023-04-18T10:06:39.804Z,102019.22
2023-04-18T10:09:08.895Z,102013.38
2023-04-18T10:11:36.034Z,102007.81
2023-04-18T10:14:06.915Z,102009.50
2023-04-18T10:16:34.981Z,102009.13
2023-04-18T10:19:26.104Z,102012.22
2023-04-18T10:21:57.251Z,102007.91
2023-04-18T10:24:45.851Z,102007.69
2023-04-18T10:27:12.194Z,102009.84
2023-04-18T10:29:49.475Z,102001.72
2023-04-18T10:32:17.713Z,101994.63
2023-04-18T10:34:45.964Z,102001.13
2023-04-18T10:37:13.053Z,101996.16
2023-04-18T10:39:56.596Z,101995.25
2023-04-18T10:42:48.199Z,102005.22
2023-04-18T10:45:22.728Z,101993.25
2023-04-18T10:47:49.785Z,101997.28
2023-04-18T10:50:17.282Z,102006.63
2023-04-18T10:52:43.799Z,101996.16
2023-04-18T10:55:24.330Z,101994.88
2023-04-18T10:57:51.452Z,101989.69
2023-04-18T11:00:20.607Z,101988.44
2023-04-18T11:02:52.541Z,101991.66
2023-04-18T11:05:24.872Z,101990.34
2023-04-18T11:07:51.419Z,101973.88
2023-04-18T11:10:20.176Z,101980.13
2023-04-18T11:12:47.077Z,101977.31
2023-04-18T11:15:22.726Z,101984.09
2023-04-18T11:17:58.223Z,101977.00
2023-04-18T11:20:24.844Z,101974.84
2023-04-18T11:22:55.245Z,101968.97
2023-04-18T11:25:41.261Z,101963.97
2023-04-18T11:28:07.684Z,101962.91
2023-04-18T11:30:41.588Z,101968.56
2023-04-18T11:33:12.644Z,101967.19
2023-04-18T11:35:43.505Z,101959.88
2023-04-18T11:38:12.854Z,101967.38
2023-04-18T11:40:39.943Z,101965.72
2023-04-18T11:43:07.266Z,101963.31
2023-04-18T11:45:33.877Z,101966.97
2023-04-18T11:48:01.015Z,101963.66
2023-04-18T11:50:27.766Z,101976.88
2023-04-18T11:52:55.331Z,101969.81
2023-04-18T11:55:25.017Z,101961.78
2023-04-18T11:57:56.945Z,101961.75
2023-04-18T12:00:38.409Z,101963.41
2023-04-18T12:03:15.796Z,101959.09
2023-04-18T12:05:42.691Z,101956.59
2023-04-18T12:08:13.847Z,101941.13
2023-04-18T12:10:47.999Z,101956.78
2023-04-18T12:13:14.671Z,101957.78
2023-04-18T12:15:44.280Z,101967.97
2023-04-18T12:18:12.450Z,101969.91
2023-04-18T12:20:45.993Z,101965.25
2023-04-18T12:23:35.817Z,101953.63
2023-04-18T12:26:03.935Z,101949.59
2023-04-18T12:28:31.643Z,101962.09
2023-04-18T12:30:58.898Z,101960.38
2023-04-18T12:33:25.506Z,101949.81
2023-04-18T12:35:52.660Z,101958.34
2023-04-18T12:38:23.373Z,101948.47
2023-04-18T12:40:51.154Z,101946.56
2023-04-18T12:43:18.398Z,101942.00
2023-04-18T12:45:46.653Z,101951.47
2023-04-18T12:48:13.374Z,101959.75
2023-04-18T12:50:39.811Z,101948.66
2023-04-18T12:53:06.641Z,101945.94
2023-04-18T12:55:33.147Z,101952.66
2023-04-18T12:57:59.597Z,101951.88
2023-04-18T13:00:28.676Z,101948.09
2023-04-18T13:02:55.299Z,101939.88
2023-04-18T13:05:23.458Z,101942.19
2023-04-18T13:07:58.710Z,101931.53
2023-04-18T13:10:31.760Z,101945.72
2023-04-18T13:12:58.258Z,101941.53
2023-04-18T13:15:24.690Z,101931.53
2023-04-18T13:17:51.126Z,101938.97
2023-04-18T13:20:17.544Z,101931.28
2023-04-18T13:22:45.014Z,101928.72
2023-04-18T13:25:11.799Z,101929.03
2023-04-18T13:27:41.790Z,101932.19
2023-04-18T13:30:10.452Z,101926.25
2023-04-18T13:32:37.552Z,101919.50
2023-04-18T13:35:04.463Z,101929.50
2023-04-18T13:37:31.190Z,101926.63
2023-04-18T13:39:57.624Z,101928.03
2023-04-18T13:42:23.989Z,101922.28
2023-04-18T13:44:50.413Z,101916.47
2023-04-18T13:47:16.797Z,101908.91
2023-04-18T13:49:43.246Z,101916.28
2023-04-18T13:52:09.621Z,101917.72
2023-04-18T13:54:37.382Z,101922.50
2023-04-18T13:57:03.952Z,101924.00
2023-04-18T13:59:33.363Z,101906.47
2023-04-18T14:01:59.932Z,101919.13
2023-04-18T14:04:27.008Z,101912.63
2023-04-18T14:06:53.513Z,101910.84
2023-04-18T14:09:19.878Z,101908.94
2023-04-18T14:11:46.522Z,101911.25
2023-04-18T14:14:12.959Z,101908.72
2023-04-18T14:16:39.470Z,101917.41
2023-04-18T14:19:06.561Z,101912.16
2023-04-18T14:21:32.933Z,101909.88
2023-04-18T14:23:59.325Z,101914.88
2023-04-18T14:26:25.822Z,101913.66
2023-04-18T14:28:52.193Z,101914.63
2023-04-18T14:31:18.706Z,101909.97
2023-04-18T14:33:45.219Z,101925.53
2023-04-18T14:36:11.759Z,101925.09
2023-04-18T14:38:38.189Z,101921.84
2023-04-18T14:41:05.690Z,101923.44
2023-04-18T14:43:32.320Z,101915.28
2023-04-18T14:45:59.670Z,101910.00
2023-04-18T14:48:26.613Z,101913.22
2023-04-18T14:51:00.034Z,101918.41
2023-04-18T14:53:27.048Z,101910.28
2023-04-18T14:55:53.510Z,101912.44
2023-04-18T14:58:20.115Z,101909.25
2023-04-18T15:00:46.526Z,101913.31
2023-04-18T15:03:13.032Z,101916.91
2023-04-18T15:05:43.018Z,101910.88
2023-04-18T15:08:11.425Z,101917.50
2023-04-18T15:10:38.470Z,101920.81
2023-04-18T15:13:04.937Z,101916.56
2023-04-18T15:15:34.811Z,101922.16
2023-04-18T15:18:02.340Z,101922.38
2023-04-18T15:20:31.832Z,101920.38
2023-04-18T15:22:58.142Z,101924.88
2023-04-18T15:25:26.061Z,101931.56
2023-04-18T15:27:53.043Z,101919.06
2023-04-18T15:30:19.693Z,101919.66
2023-04-18T15:32:46.126Z,101931.16
2023-04-18T15:35:12.954Z,101926.72
2023-04-18T15:37:39.448Z,101923.50
2023-04-18T15:40:09.159Z,101931.38
2023-04-18T15:42:35.825Z,101931.06
2023-04-18T15:45:04.058Z,101932.59
2023-04-18T15:47:33.302Z,101923.50
2023-04-18T15:50:00.410Z,101920.38
2023-04-18T15:52:26.755Z,101920.13
2023-04-18T15:54:54.368Z,101921.13
2023-04-18T15:57:21.329Z,101918.03
2023-04-18T15:59:47.707Z,101910.00
2023-04-18T16:02:14.292Z,101913.00
2023-04-18T16:04:40.836Z,101912.06
2023-04-18T16:07:08.301Z,101909.19
2023-04-18T16:09:34.815Z,101906.56
2023-04-18T16:12:03.087Z,101911.75
2023-04-18T16:14:30.539Z,101902.22
2023-04-18T16:17:00.285Z,101899.34
2023-04-18T16:19:26.703Z,101900.47
2023-04-18T16:21:53.137Z,101897.44
2023-04-18T16:24:19.570Z,101904.75
2023-04-18T16:26:46.292Z,101904.72
2023-04-18T16:29:12.674Z,101900.31
2023-04-18T16:31:39.120Z,101913.84
2023-04-18T16:34:05.487Z,101907.06
2023-04-18T16:36:34.663Z,101911.03
2023-04-18T16:39:01.054Z,101911.59
2023-04-18T16:41:27.535Z,101915.22
2023-04-18T16:43:54.050Z,101910.28
2023-04-18T16:46:20.527Z,101904.09
2023-04-18T16:48:46.950Z,101902.44
2023-04-18T16:51:13.425Z,101908.63
2023-04-18T16:53:39.925Z,101900.19
2023-04-18T16:56:07.788Z,101908.38
2023-04-18T16:58:34.398Z,101907.13
2023-04-18T17:01:03.893Z,101902.72
2023-04-18T17:03:30.507Z,101907.19
2023-04-18T17:05:57.089Z,101910.19
2023-04-18T17:08:25.721Z,101904.09
2023-04-18T17:10:52.575Z,101908.91
2023-04-18T17:13:19.552Z,101902.03
2023-04-18T17:15:46.109Z,101898.72
2023-04-18T17:18:12.542Z,101914.16
2023-04-18T17:20:38.989Z,101905.84
2023-04-18T17:23:05.325Z,101905.16
2023-04-18T17:25:31.766Z,101917.78
2023-04-18T17:27:58.261Z,101909.94
2023-04-18T17:30:24.588Z,101913.00
2023-04-18T17:32:51.088Z,101914.47
2023-04-18T17:35:17.843Z,101913.94
2023-04-18T17:37:44.196Z,101912.47
2023-04-18T17:40:11.697Z,101923.25
2023-04-18T17:42:38.328Z,101928.22
2023-04-18T17:45:09.664Z,101923.75
2023-04-18T17:47:36.672Z,101924.00
2023-04-18T17:50:06.990Z,101930.22
2023-04-18T17:52:33.477Z,101925.28
2023-04-18T17:55:01.518Z,101926.56
2023-04-18T17:57:30.175Z,101928.06
2023-04-18T17:59:56.564Z,101931.03
2023-04-18T18:02:28.136Z,101935.47
2023-04-18T18:04:54.617Z,101943.94
2023-04-18T18:07:21.163Z,101937.56
2023-04-18T18:09:47.555Z,101940.19
2023-04-18T18:12:14.054Z,101945.09
2023-04-18T18:14:40.514Z,101945.09
2023-04-18T18:17:07.042Z,101950.16
2023-04-18T18:19:36.122Z,101950.66
2023-04-18T18:22:02.638Z,101947.94
2023-04-18T18:24:29.086Z,101953.22
2023-04-18T18:26:56.302Z,101951.25
2023-04-18T18:29:22.733Z,101950.16
2023-04-18T18:31:49.250Z,101950.97
2023-04-18T18:34:15.700Z,101963.91
2023-04-18T18:36:42.205Z,101958.09
2023-04-18T18:39:08.652Z,101963.56
2023-04-18T18:41:35.033Z,101965.56
2023-04-18T18:44:01.446Z,101965.78
2023-04-18T18:46:27.974Z,101967.63
2023-04-18T18:48:54.344Z,101973.59
2023-04-18T18:51:20.716Z,101979.28
2023-04-18T18:53:47.127Z,101974.22
2023-04-18T18:56:13.512Z,101976.03
2023-04-18T18:58:40.398Z,101977.47
2023-04-18T19:01:06.810Z,101992.34
2023-04-18T19:03:34.623Z,101989.50
2023-04-18T19:06:03.776Z,101991.91
2023-04-18T19:08:30.876Z,101993.38
2023-04-18T19:10:57.189Z,102000.97
2023-04-18T19:13:24.056Z,102002.25
2023-04-18T19:15:51.088Z,102006.91
2023-04-18T19:18:19.507Z,102007.13
2023-04-18T19:20:46.345Z,102004.56
2023-04-18T19:23:12.856Z,102003.47
2023-04-18T19:25:39.198Z,101998.56
2023-04-18T19:28:05.781Z,102003.56
2023-04-18T19:30:32.636Z,102009.78
2023-04-18T19:32:59.506Z,102015.13
2023-04-18T19:35:25.958Z,102008.47
2023-04-18T19:37:52.450Z,102008.34
2023-04-18T19:40:19.589Z,102012.13
2023-04-18T19:42:46.115Z,102007.63
2023-04-18T19:45:13.757Z,102007.38
2023-04-18T19:47:42.251Z,102014.28
2023-04-18T19:50:08.936Z,102021.19
2023-04-18T19:52:35.535Z,102004.16
2023-04-18T19:55:02.014Z,102014.50
2023-04-18T19:57:29.640Z,102011.66
2023-04-18T19:59:56.533Z,102007.50
2023-04-18T20:02:23.086Z,102016.06
2023-04-18T20:04:49.577Z,102016.75
2023-04-18T20:07:16.282Z,102014.91
2023-04-18T20:09:42.636Z,102015.56
2023-04-18T20:12:08.968Z,102011.44
2023-04-18T20:14:35.596Z,102020.72
2023-04-18T20:17:01.925Z,102024.97
2023-04-18T20:19:29.672Z,102019.66
2023-04-18T20:21:56.264Z,102020.16
2023-04-18T20:24:23.815Z,102021.00
2023-04-18T20:26:51.285Z,102018.38
2023-04-18T20:29:17.811Z,102020.03
2023-04-18T20:31:44.177Z,102022.41
2023-04-18T20:34:10.941Z,102018.72
2023-04-18T20:36:42.618Z,102024.53
2023-04-18T20:39:09.071Z,102019.06
2023-04-18T20:41:36.899Z,102021.44
2023-04-18T20:44:06.561Z,102020.41
2023-04-18T20:46:33.053Z,102030.97
2023-04-18T20:49:00.693Z,102030.84
2023-04-18T20:51:28.660Z,102032.50
2023-04-18T20:53:55.183Z,102038.56
2023-04-18T20:56:22.190Z,102037.97
2023-04-18T20:58:48.540Z,102030.97
2023-04-18T21:01:14.899Z,102033.34
2023-04-18T21:03:41.588Z,102038.69
2023-04-18T21:06:08.044Z,102040.00
2023-04-18T21:08:39.204Z,102040.94
2023-04-18T21:11:06.824Z,102053.53
2023-04-18T21:13:34.144Z,102045.00
2023-04-18T21:16:03.143Z,102044.03
2023-04-18T21:18:30.435Z,102045.22
2023-04-18T21:20:56.942Z,102052.38
2023-04-18T21:23:24.039Z,102043.91
2023-04-18T21:25:50.920Z,102051.78
2023-04-18T21:28:19.037Z,102056.63
2023-04-18T21:30:46.318Z,102046.91
2023-04-18T21:33:13.642Z,102054.13
2023-04-18T21:35:40.131Z,102043.91
2023-04-18T21:38:06.484Z,102047.72
2023-04-18T21:40:34.568Z,102058.28
2023-04-18T21:43:01.155Z,102057.22
2023-04-18T21:45:27.663Z,102066.59
2023-04-18T21:47:54.239Z,102057.09
2023-04-18T21:50:20.858Z,102057.09
2023-04-18T21:52:47.231Z,102057.56
2023-04-18T21:55:13.913Z,102058.50
2023-04-18T21:57:40.455Z,102058.28
2023-04-18T22:00:10.265Z,102058.75
2023-04-18T22:02:37.082Z,102070.03
2023-04-18T22:05:03.772Z,102056.63
2023-04-18T22:07:30.970Z,102051.41
2023-04-18T22:09:59.587Z,102049.72
2023-04-18T22:12:26.485Z,102059.59
2023-04-18T22:14:52.991Z,102048.78
2023-04-18T22:17:20.816Z,102061.81
2023-04-18T22:19:49.119Z,102055.06
2023-04-18T22:22:15.530Z,102057.06
2023-04-18T22:24:41.881Z,102062.06
2023-04-18T22:27:08.344Z,102058.59
2023-04-18T22:29:34.710Z,102063.69
2023-04-18T22:32:01.086Z,102060.75
2023-04-18T22:34:27.513Z,102051.03
2023-04-18T22:36:53.848Z,102057.53
2023-04-18T22:39:20.229Z,102059.06
2023-04-18T22:41:46.694Z,102060.00
2023-04-18T22:44:13.447Z,102067.84
2023-04-18T22:46:40.885Z,102066.53
2023-04-18T22:49:07.406Z,102069.88
2023-04-18T22:51:34.114Z,102069.88
2023-04-18T22:54:00.553Z,102068.69
2023-04-18T22:56:26.922Z,102069.41
2023-04-18T22:58:53.230Z,102071.31
2023-04-18T23:01:19.630Z,102077.38
2023-04-18T23:03:46.533Z,102065.03
2023-04-18T23:06:13.070Z,102069.91
2023-04-18T23:08:39.530Z,102067.53
2023-04-18T23:11:05.965Z,102068.34
2023-04-18T23:13:32.265Z,102067.50
2023-04-18T23:15:58.844Z,102056.84
2023-04-18T23:18:25.459Z,102049.69
2023-04-18T23:20:51.940Z,102061.34
2023-04-18T23:23:18.395Z,102063.13
2023-04-18T23:25:44.876Z,102062.53
2023-04-18T23:28:13.421Z,102058.22
2023-04-18T23:30:39.963Z,102058.22
2023-04-18T23:33:06.582Z,102065.69
2023-04-18T23:35:33.020Z,102064.00
2023-04-18T23:37:59.521Z,102065.06
2023-04-18T23:40:25.883Z,102060.91
2023-04-18T23:42:52.318Z,102066.19
2023-04-18T23:45:18.820Z,102061.69
2023-04-18T23:47:45.275Z,102052.88
2023-04-18T23:50:12.010Z,102064.16
2023-04-18T23:52:38.634Z,102060.72
2023-04-18T23:55:05.441Z,102060.16
2023-04-18T23:57:31.889Z,102056.09
2023-04-18T23:59:58.320Z,102058.25
